Report METAR

 

LIBV - Gioia Del Colle, Italy
Distanza dalla stazione: SSE 15km
Dati ricevuti: 21/10/2017 13:55
Sereno
Sereno
 Vento da NO
Vento: NO 11 km/h
Temperatura: 21°C
P.to Rugiada: 8°C
Umidità: 43%
Barometro: 1020 hPa
Riassunto: Sereno
Visibilità: superiore a 10 km
2017/10/21 11:55 LIBV 211155Z 32006KT 280V020 CAVOK 21/08 Q1020 RMK SCT SCT200 VIS MIN 9999 WIND THR32 36006KT WIND THR14 35006KT BLU
LIBD - Bari/Palese Macc, Italy
Distanza dalla stazione: NNO 26km
Dati ricevuti: 21/10/2017 13:50
Sereno
Sereno
 Vento da NE
Vento: NE 11 km/h
Temperatura: 20°C
P.to Rugiada: 14°C
Umidità: 69%
Barometro: 1020 hPa
Riassunto: Sereno
Visibilità: superiore a 10 km
2017/10/21 11:50 LIBD 211150Z 04006KT 010V080 CAVOK 20/14 Q1020
LIBH - Marina Di Ginosa, Italy
Distanza dalla stazione: S 53km
Dati ricevuti: 21/10/2017 13:55
Sereno
Sereno
 Vento da SSE
Vento: SSE 11 km/h
Temperatura: 23°C
P.to Rugiada: 17°C
Umidità: 69%
Barometro: 1019 hPa
Riassunto: Sereno
Visibilità: superiore a 10 km
2017/10/21 11:55 LIBH 211155Z 16006KT CAVOK 23/17 Q1019 RMK FEW FEW200 QUK 2 QUL 1 SE VIS MAR 1000 M VIS MIN 9999
 
LIBG - Grottaglie(Civ/A, Italy
Distanza dalla stazione: SE 61km
Dati ricevuti: 21/10/2017 13:50
Poche nubi
Poche nubi
 Vento da Variabile
Vento: Variabile 7 km/h
Temperatura: 23°C
P.to Rugiada: 15°C
Umidità: 61%
Barometro: 1019 hPa
Nuvole: Poche nubi
Visibilità: 10 km
Dettagli nuvole: Poche nubi 914 m
2017/10/21 11:50 LIBG 211150Z VRB04KT 9999 FEW030 23/15 Q1019
LIBR - Brindisi/Casale, Italy
Distanza dalla stazione: ESE 96km
Dati ricevuti: 21/10/2017 13:45
Poche nubi
Poche nubi
 Vento da NO
Vento: NO 24 km/h
Temperatura: 21°C
P.to Rugiada: 18°C
Umidità: 83%
Barometro: 1021 hPa
Nuvole: Poche nubi
Visibilità: 10 km
Dettagli nuvole: Poche nubi 610 m
2017/10/21 11:45 LIBR 211145Z 32013KT 9999 FEW020 21/18 Q1021 NOSIG
LIBA - Amendola (it-Afb, Italy
Distanza dalla stazione: NO 118km
Dati ricevuti: 20/10/2017 19:55
DATI Obsoleti
Poche nubi
Poche nubi
 Vento da ESE
Vento: ESE 6 km/h
Temperatura: 17°C
P.to Rugiada: 17°C
Umidità: 100%
Barometro: 1020 hPa
Nuvole: Poche nubi
Visibilità: 9 km
Dettagli nuvole: Poche nubi 914 m
2017/10/20 17:55 LIBA 201755Z 12003KT 9000 FEW030 17/17 Q1020 RMK FEW VIS MIN 9000 WIND THR11 13003KT WIND THR29 /////KT BLU
 
LIBF - Foggia/Gino Lisa, Italy
Distanza dalla stazione: ONO 126km
Dati ricevuti: 21/10/2017 13:50
Sereno
Sereno
 Vento da E
Vento: E 7 km/h
Temperatura: 23°C
P.to Rugiada: 13°C
Umidità: 53%
Barometro: 1020 hPa
Riassunto: Sereno
Visibilità: superiore a 10 km
2017/10/21 11:50 LIBF 211150Z 08004KT CAVOK 23/13 Q1020
LIBN - Lecce (it-Afb), Italy
Distanza dalla stazione: SE 132km
Dati ricevuti: 21/10/2017 13:55
Parz. nuvoloso
Parz. nuvoloso
 Vento da NNO
Vento: NNO 17 km/h
Temperatura: 22°C
P.to Rugiada: 16°C
Umidità: 69%
Barometro: 1019 hPa
Nuvole: Parz. nuvoloso
Visibilità: 10 km
Dettagli nuvole: Parz. nuvoloso 914 m
2017/10/21 11:55 LIBN 211155Z 34009KT 9999 SCT030 22/16 Q1019 RMK SCT VIS MIN 9999 WIND THR14 35008KT WIND THR32 35010KT BLU